createdAt,value
2022-12-18T00:02:01.520Z,99327.69
2022-12-18T00:04:29.511Z,99312.69
2022-12-18T00:06:57.105Z,99315.47
2022-12-18T00:09:24.938Z,99304.88
2022-12-18T00:14:46.114Z,99292.25
2022-12-18T00:17:13.665Z,99296.19
2022-12-18T00:19:41.099Z,99283.88
2022-12-18T00:22:08.659Z,99288.56
2022-12-18T00:24:36.169Z,99293.09
2022-12-18T00:27:03.861Z,99289.72
2022-12-18T00:29:31.378Z,99269.88
2022-12-18T00:32:00.405Z,99274.03
2022-12-18T00:34:28.058Z,99266.09
2022-12-18T00:36:55.495Z,99279.81
2022-12-18T00:39:23.283Z,99264.34
2022-12-18T00:42:09.262Z,99267.38
2022-12-18T00:44:36.841Z,99262.59
2022-12-18T00:47:04.431Z,99253.63
2022-12-18T00:49:32.251Z,99248.50
2022-12-18T00:51:59.776Z,99246.84
2022-12-18T00:54:27.377Z,99251.28
2022-12-18T00:56:56.240Z,99242.84
2022-12-18T00:59:23.821Z,99228.03
2022-12-18T01:01:52.062Z,99221.00
2022-12-18T01:04:21.588Z,99218.88
2022-12-18T01:06:49.483Z,99213.50
2022-12-18T01:09:16.940Z,99210.47
2022-12-18T01:11:44.470Z,99216.28
2022-12-18T01:14:12.200Z,99212.22
2022-12-18T01:16:39.894Z,99197.28
2022-12-18T01:19:07.879Z,99197.53
2022-12-18T01:21:35.493Z,99185.19
2022-12-18T01:24:06.150Z,99203.50
2022-12-18T01:26:34.706Z,99191.94
2022-12-18T01:29:02.409Z,99205.25
2022-12-18T01:31:32.895Z,99212.69
2022-12-18T01:34:05.559Z,99205.03
2022-12-18T01:36:38.333Z,99201.75
2022-12-18T01:39:08.861Z,99201.09
2022-12-18T01:41:55.081Z,99196.56
2022-12-18T01:44:47.732Z,99197.00
2022-12-18T01:47:38.615Z,99197.13
2022-12-18T01:50:22.510Z,99188.34
2022-12-18T01:53:03.662Z,99190.25
2022-12-18T01:55:39.037Z,99199.56
2022-12-18T01:58:06.999Z,99199.56
2022-12-18T02:00:35.159Z,99196.28
2022-12-18T02:03:03.050Z,99183.97
2022-12-18T02:05:49.260Z,99193.84
2022-12-18T02:08:40.732Z,99187.88
2022-12-18T02:11:30.031Z,99187.78
2022-12-18T02:14:15.567Z,99185.59
2022-12-18T02:16:56.907Z,99184.13
2022-12-18T02:19:42.722Z,99186.34
2022-12-18T02:22:19.322Z,99193.44
2022-12-18T02:25:01.133Z,99192.69
2022-12-18T02:27:33.505Z,99191.19
2022-12-18T02:30:03.432Z,99179.38
2022-12-18T02:32:39.327Z,99184.00
2022-12-18T02:35:10.692Z,99178.22
2022-12-18T02:37:41.145Z,99177.06
2022-12-18T02:40:09.952Z,99191.38
2022-12-18T02:42:40.432Z,99193.41
2022-12-18T02:45:10.778Z,99191.09
2022-12-18T02:47:42.126Z,99183.44
2022-12-18T02:50:28.369Z,99187.19
2022-12-18T02:53:12.780Z,99199.41
2022-12-18T02:55:43.261Z,99202.91
2022-12-18T02:58:25.762Z,99191.56
2022-12-18T03:01:10.856Z,99190.81
2022-12-18T03:04:01.885Z,99184.38
2022-12-18T03:06:45.959Z,99177.16
2022-12-18T03:09:22.871Z,99174.19
2022-12-18T03:12:16.650Z,99168.56
2022-12-18T03:14:46.807Z,99170.63
2022-12-18T03:17:22.140Z,99179.69
2022-12-18T03:19:52.803Z,99177.94
2022-12-18T03:22:25.815Z,99182.56
2022-12-18T03:24:57.690Z,99183.31
2022-12-18T03:27:27.416Z,99184.72
2022-12-18T03:30:14.180Z,99198.00
2022-12-18T03:32:51.925Z,99186.94
2022-12-18T03:35:30.780Z,99186.94
2022-12-18T03:37:59.129Z,99184.44
2022-12-18T03:40:54.360Z,99197.00
2022-12-18T03:43:51.449Z,99186.06
2022-12-18T03:46:31.949Z,99180.03
2022-12-18T03:49:18.162Z,99176.00
2022-12-18T03:51:53.657Z,99175.53
2022-12-18T03:54:22.564Z,99183.84
2022-12-18T03:57:07.902Z,99182.31
2022-12-18T03:59:38.872Z,99184.13
2022-12-18T04:02:09.470Z,99190.78
2022-12-18T04:04:40.637Z,99181.03
2022-12-18T04:07:08.960Z,99189.44
2022-12-18T04:09:41.114Z,99176.81
2022-12-18T04:12:10.541Z,99171.13
2022-12-18T04:14:38.176Z,99174.53
2022-12-18T04:17:09.039Z,99194.03
2022-12-18T04:19:36.580Z,99211.09
2022-12-18T04:22:04.935Z,99227.81
2022-12-18T04:24:40.034Z,99221.91
2022-12-18T04:27:13.944Z,99233.06
2022-12-18T04:29:45.979Z,99219.47
2022-12-18T04:32:13.539Z,99237.84
2022-12-18T04:34:43.687Z,99234.28
2022-12-18T04:37:12.328Z,99227.72
2022-12-18T04:39:40.400Z,99254.38
2022-12-18T04:42:15.123Z,99261.66
2022-12-18T04:44:42.702Z,99247.88
2022-12-18T04:47:10.130Z,99262.22
2022-12-18T04:49:37.714Z,99275.88
2022-12-18T04:52:05.341Z,99281.28
2022-12-18T04:54:35.743Z,99281.03
2022-12-18T04:57:03.289Z,99279.16
2022-12-18T04:59:30.856Z,99280.28
2022-12-18T05:01:58.478Z,99263.69
2022-12-18T05:04:26.041Z,99271.34
2022-12-18T05:06:53.615Z,99264.44
2022-12-18T05:09:21.070Z,99264.06
2022-12-18T05:11:48.643Z,99263.69
2022-12-18T05:14:16.458Z,99276.28
2022-12-18T05:16:43.989Z,99281.44
2022-12-18T05:19:11.742Z,99277.53
2022-12-18T05:21:41.796Z,99282.44
2022-12-18T05:24:09.647Z,99290.75
2022-12-18T05:26:37.170Z,99291.78
2022-12-18T05:29:04.693Z,99300.31
2022-12-18T05:31:37.490Z,99313.38
2022-12-18T05:34:07.061Z,99319.91
2022-12-18T05:36:34.585Z,99316.78
2022-12-18T05:39:02.248Z,99318.75
2022-12-18T05:41:29.883Z,99332.09
2022-12-18T05:43:57.681Z,99333.72
2022-12-18T05:46:25.525Z,99339.38
2022-12-18T05:48:53.184Z,99346.03
2022-12-18T05:51:23.256Z,99348.69
2022-12-18T05:53:53.571Z,99362.00
2022-12-18T05:56:23.508Z,99360.50
2022-12-18T05:58:55.184Z,99348.94
2022-12-18T06:01:26.003Z,99354.69
2022-12-18T06:03:54.350Z,99364.91
2022-12-18T06:06:25.471Z,99354.69
2022-12-18T06:08:54.282Z,99364.53
2022-12-18T06:11:26.639Z,99373.34
2022-12-18T06:13:58.691Z,99374.72
2022-12-18T06:16:28.325Z,99377.34
2022-12-18T06:19:03.478Z,99386.03
2022-12-18T06:21:32.197Z,99386.03
2022-12-18T06:24:01.177Z,99394.19
2022-12-18T06:26:28.882Z,99387.03
2022-12-18T06:28:57.166Z,99390.69
2022-12-18T06:31:26.142Z,99404.78
2022-12-18T06:33:54.204Z,99406.81
2022-12-18T06:36:22.414Z,99405.28
2022-12-18T06:38:50.187Z,99412.94
2022-12-18T06:41:20.435Z,99410.06
2022-12-18T06:43:48.274Z,99411.44
2022-12-18T06:46:15.986Z,99436.44
2022-12-18T06:48:43.632Z,99445.91
2022-12-18T06:51:11.104Z,99451.28
2022-12-18T06:53:41.365Z,99454.81
2022-12-18T06:56:10.739Z,99455.94
2022-12-18T06:58:40.310Z,99461.34
2022-12-18T07:01:11.540Z,99464.38
2022-12-18T07:03:41.992Z,99481.72
2022-12-18T07:06:18.711Z,99472.66
2022-12-18T07:08:47.611Z,99476.03
2022-12-18T07:11:16.139Z,99476.19
2022-12-18T07:13:43.941Z,99475.16
2022-12-18T07:16:20.833Z,99478.31
2022-12-18T07:18:50.035Z,99480.84
2022-12-18T07:21:20.359Z,99480.97
2022-12-18T07:23:49.416Z,99493.81
2022-12-18T07:26:19.464Z,99497.81
2022-12-18T07:28:47.715Z,99514.31
2022-12-18T07:31:18.346Z,99516.22
2022-12-18T07:33:46.522Z,99511.28
2022-12-18T07:36:15.465Z,99527.91
2022-12-18T07:38:43.346Z,99521.72
2022-12-18T07:41:14.349Z,99533.94
2022-12-18T07:43:42.761Z,99519.97
2022-12-18T07:46:13.349Z,99527.25
2022-12-18T07:48:48.202Z,99534.03
2022-12-18T07:51:18.794Z,99514.44
2022-12-18T07:53:48.772Z,99531.53
2022-12-18T07:56:30.099Z,99524.38
2022-12-18T07:58:59.713Z,99527.91
2022-12-18T08:01:30.074Z,99532.41
2022-12-18T08:03:58.743Z,99534.44
2022-12-18T08:06:28.550Z,99538.31
2022-12-18T08:08:58.892Z,99537.06
2022-12-18T08:11:29.791Z,99555.44
2022-12-18T08:13:58.731Z,99552.28
2022-12-18T08:16:27.014Z,99568.28
2022-12-18T08:18:55.368Z,99575.22
2022-12-18T08:21:27.390Z,99584.41
2022-12-18T08:23:57.085Z,99587.81
2022-12-18T08:26:25.867Z,99593.09
2022-12-18T08:28:55.933Z,99601.63
2022-12-18T08:31:24.639Z,99606.44
2022-12-18T08:33:55.516Z,99605.19
2022-12-18T08:36:27.050Z,99601.53
2022-12-18T08:38:55.058Z,99588.94
2022-12-18T08:41:22.863Z,99608.19
2022-12-18T08:44:11.517Z,99605.56
2022-12-18T08:46:43.331Z,99615.72
2022-12-18T08:49:12.388Z,99612.81
2022-12-18T08:51:40.918Z,99614.34
2022-12-18T08:54:08.677Z,99614.19
2022-12-18T08:56:36.232Z,99619.56
2022-12-18T08:59:03.937Z,99613.75
2022-12-18T09:01:31.672Z,99608.34
2022-12-18T09:03:59.713Z,99617.78
2022-12-18T09:06:27.694Z,99615.53
2022-12-18T09:08:55.317Z,99602.81
2022-12-18T09:11:27.767Z,99612.72
2022-12-18T09:13:56.565Z,99620.28
2022-12-18T09:16:30.385Z,99630.13
2022-12-18T09:19:00.869Z,99639.19
2022-12-18T09:21:31.315Z,99636.69
2022-12-18T09:24:00.833Z,99653.19
2022-12-18T09:26:28.729Z,99655.81
2022-12-18T09:28:57.048Z,99659.75
2022-12-18T09:31:25.804Z,99668.19
2022-12-18T09:33:53.881Z,99672.59
2022-12-18T09:36:22.272Z,99669.47
2022-12-18T09:38:49.851Z,99686.19
2022-12-18T09:41:46.931Z,99685.19
2022-12-18T09:44:21.144Z,99685.34
2022-12-18T09:46:58.396Z,99682.06
2022-12-18T09:49:30.667Z,99682.94
2022-12-18T09:52:06.827Z,99683.81
2022-12-18T09:54:39.778Z,99696.44
2022-12-18T09:57:23.269Z,99677.59
2022-12-18T10:00:23.948Z,99692.13
2022-12-18T10:02:54.625Z,99692.75
2022-12-18T10:05:48.415Z,99699.06
2022-12-18T10:08:29.781Z,99697.16
2022-12-18T10:11:04.475Z,99707.50
2022-12-18T10:13:56.028Z,99719.31
2022-12-18T10:16:37.672Z,99713.81
2022-12-18T10:19:25.289Z,99700.56
2022-12-18T10:22:16.465Z,99709.38
2022-12-18T10:25:01.590Z,99704.72
2022-12-18T10:27:30.194Z,99701.22
2022-12-18T10:29:59.222Z,99704.25
2022-12-18T10:32:29.574Z,99702.50
2022-12-18T10:35:00.736Z,99711.56
2022-12-18T10:37:31.181Z,99712.81
2022-12-18T10:40:21.568Z,99715.50
2022-12-18T10:43:15.686Z,99720.00
2022-12-18T10:45:57.238Z,99724.44
2022-12-18T10:48:25.837Z,99731.22
2022-12-18T10:51:12.620Z,99727.72
2022-12-18T10:53:43.904Z,99742.06
2022-12-18T10:56:12.058Z,99758.06
2022-12-18T10:58:40.919Z,99766.16
2022-12-18T11:01:17.178Z,99768.56
2022-12-18T11:04:02.640Z,99776.59
2022-12-18T11:06:33.766Z,99779.88
2022-12-18T11:09:19.920Z,99788.09
2022-12-18T11:11:56.500Z,99786.22
2022-12-18T11:14:26.228Z,99780.66
2022-12-18T11:17:24.402Z,99786.19
2022-12-18T11:19:43.070Z,99775.88
2022-12-18T11:22:43.039Z,99788.22
2022-12-18T11:25:34.735Z,99777.91
2022-12-18T11:28:03.133Z,99783.81
2022-12-18T11:30:32.962Z,99786.47
2022-12-18T11:33:17.752Z,99797.78
2022-12-18T11:35:53.472Z,99798.19
2022-12-18T11:38:30.800Z,99794.28
2022-12-18T11:41:45.918Z,99801.34
2022-12-18T11:44:21.049Z,99796.03
2022-12-18T11:47:38.526Z,99804.22
2022-12-18T11:50:21.897Z,99814.56
2022-12-18T11:52:55.932Z,99809.38
2022-12-18T11:55:49.668Z,99819.59
2022-12-18T11:58:34.181Z,99849.84
2022-12-18T12:01:07.676Z,99847.06
2022-12-18T12:04:09.534Z,99848.84
2022-12-18T12:07:06.170Z,99859.28
2022-12-18T12:09:58.634Z,99868.63
2022-12-18T12:13:01.501Z,99886.13
2022-12-18T12:15:49.434Z,99888.16
2022-12-18T12:18:32.185Z,99885.72
2022-12-18T12:21:14.220Z,99897.06
2022-12-18T12:24:13.899Z,99906.75
2022-12-18T12:26:52.353Z,99905.38
2022-12-18T12:29:41.180Z,99906.38
2022-12-18T12:32:17.641Z,99904.22
2022-12-18T12:35:02.583Z,99922.25
2022-12-18T12:37:44.402Z,99920.72
2022-12-18T12:40:52.562Z,99927.28
2022-12-18T12:43:50.502Z,99927.53
2022-12-18T12:46:22.664Z,99935.75
2022-12-18T12:48:52.729Z,99947.59
2022-12-18T12:51:36.705Z,99943.00
2022-12-18T12:54:12.102Z,99952.59
2022-12-18T12:56:50.874Z,99959.78
2022-12-18T12:59:43.625Z,99966.22
2022-12-18T13:02:36.134Z,99970.88
2022-12-18T13:05:19.492Z,99976.41
2022-12-18T13:07:54.206Z,99988.13
2022-12-18T13:10:37.797Z,99982.72
2022-12-18T13:13:10.423Z,99990.00
2022-12-18T13:15:46.087Z,99997.09
2022-12-18T13:18:23.761Z,99990.50
2022-12-18T13:21:05.217Z,99998.72
2022-12-18T13:23:39.845Z,100002.13
2022-12-18T13:26:11.136Z,100010.44
2022-12-18T13:28:47.960Z,100014.22
2022-12-18T13:31:42.486Z,100007.94
2022-12-18T13:34:29.309Z,100030.19
2022-12-18T13:37:19.597Z,100027.28
2022-12-18T13:39:47.399Z,100030.06
2022-12-18T13:42:34.855Z,100048.72
2022-12-18T13:45:02.566Z,100042.13
2022-12-18T13:47:38.813Z,100046.41
2022-12-18T13:50:32.284Z,100057.22
2022-12-18T13:53:08.460Z,100074.81
2022-12-18T13:55:36.282Z,100049.63
2022-12-18T13:58:07.365Z,100072.78
2022-12-18T14:00:35.103Z,100084.31
2022-12-18T14:03:02.962Z,100076.38
2022-12-18T14:05:32.270Z,100083.31
2022-12-18T14:08:05.642Z,100095.31
2022-12-18T14:10:42.243Z,100102.38
2022-12-18T14:13:38.455Z,100111.28
2022-12-18T14:16:08.550Z,100107.34
2022-12-18T14:18:46.282Z,100109.88
2022-12-18T14:21:21.998Z,100118.59
2022-12-18T14:23:50.671Z,100140.09
2022-12-18T14:26:22.568Z,100139.34
2022-12-18T14:28:51.252Z,100136.44
2022-12-18T14:31:24.512Z,100143.13
2022-12-18T14:33:53.052Z,100144.47
2022-12-18T14:36:28.859Z,100161.78
2022-12-18T14:38:58.640Z,100157.47
2022-12-18T14:41:27.415Z,100166.25
2022-12-18T14:43:55.958Z,100167.75
2022-12-18T14:46:36.598Z,100179.59
2022-12-18T14:49:32.988Z,100183.75
2022-12-18T14:52:17.495Z,100179.47
2022-12-18T14:54:48.021Z,100187.22
2022-12-18T14:57:27.959Z,100197.16
2022-12-18T15:00:08.828Z,100201.31
2022-12-18T15:02:37.661Z,100216.16
2022-12-18T15:05:21.692Z,100201.03
2022-12-18T15:07:52.980Z,100217.47
2022-12-18T15:10:28.934Z,100214.63
2022-12-18T15:12:56.431Z,100215.56
2022-12-18T15:15:48.132Z,100223.81
2022-12-18T15:18:18.718Z,100223.88
2022-12-18T15:21:00.309Z,100216.81
2022-12-18T15:23:49.953Z,100230.97
2022-12-18T15:26:19.788Z,100235.72
2022-12-18T15:28:49.442Z,100236.47
2022-12-18T15:31:17.423Z,100248.88
2022-12-18T15:33:53.280Z,100237.06
2022-12-18T15:36:26.200Z,100231.00
2022-12-18T15:39:04.621Z,100256.06
2022-12-18T15:41:36.136Z,100257.53
2022-12-18T15:44:22.468Z,100255.47
2022-12-18T15:46:50.119Z,100257.97
2022-12-18T15:49:17.684Z,100251.63
2022-12-18T15:51:45.929Z,100261.41
2022-12-18T15:54:17.240Z,100260.81
2022-12-18T15:57:03.548Z,100269.72
2022-12-18T15:59:31.187Z,100268.50
2022-12-18T16:01:58.808Z,100262.72
2022-12-18T16:04:26.686Z,100277.53
2022-12-18T16:09:42.061Z,100298.38
2022-12-18T16:12:19.255Z,100296.63
2022-12-18T16:14:46.932Z,100311.59
2022-12-18T16:17:15.608Z,100321.78
2022-12-18T16:19:46.075Z,100318.53
2022-12-18T16:22:23.135Z,100324.50
2022-12-18T16:24:52.365Z,100332.06
2022-12-18T16:27:20.961Z,100337.09
2022-12-18T16:29:48.507Z,100342.13
2022-12-18T16:32:21.978Z,100355.28
2022-12-18T16:34:50.948Z,100344.34
2022-12-18T16:37:18.449Z,100342.88
2022-12-18T16:39:46.340Z,100353.97
2022-12-18T16:42:20.514Z,100363.75
2022-12-18T16:44:49.920Z,100368.59
2022-12-18T16:47:18.167Z,100378.53
2022-12-18T16:49:46.244Z,100378.25
2022-12-18T16:52:14.707Z,100373.50
2022-12-18T16:54:42.209Z,100380.44
2022-12-18T16:57:16.437Z,100390.94
2022-12-18T16:59:44.119Z,100382.50
2022-12-18T17:02:25.932Z,100392.25
2022-12-18T17:04:57.137Z,100396.22
2022-12-18T17:07:27.790Z,100395.59
2022-12-18T17:09:55.415Z,100402.38
2022-12-18T17:12:26.870Z,100413.72
2022-12-18T17:14:54.429Z,100417.25
2022-12-18T17:17:23.417Z,100415.03
2022-12-18T17:19:52.871Z,100415.16
2022-12-18T17:22:23.506Z,100430.19
2022-12-18T17:24:51.322Z,100436.09
2022-12-18T17:27:18.991Z,100432.38
2022-12-18T17:29:48.368Z,100441.34
2022-12-18T17:32:18.153Z,100450.66
2022-12-18T17:34:46.905Z,100447.66
2022-12-18T17:37:14.627Z,100456.22
2022-12-18T17:39:42.551Z,100458.47
2022-12-18T17:42:15.575Z,100459.56
2022-12-18T17:44:45.007Z,100467.22
2022-12-18T17:47:13.937Z,100479.84
2022-12-18T17:49:41.541Z,100487.38
2022-12-18T17:52:09.498Z,100480.81
2022-12-18T17:54:39.952Z,100482.69
2022-12-18T17:57:07.884Z,100487.19
2022-12-18T17:59:35.357Z,100477.25
2022-12-18T18:02:03.158Z,100486.97
2022-12-18T18:04:30.829Z,100486.81
2022-12-18T18:06:58.522Z,100495.63
2022-12-18T18:09:26.166Z,100513.75
2022-12-18T18:12:12.268Z,100515.13
2022-12-18T18:14:40.077Z,100505.69
2022-12-18T18:17:07.744Z,100530.31
2022-12-18T18:19:35.852Z,100527.06
2022-12-18T18:22:03.752Z,100523.00
2022-12-18T18:24:33.528Z,100532.91
2022-12-18T18:27:01.235Z,100543.75
2022-12-18T18:29:32.576Z,100546.25
2022-12-18T18:32:00.569Z,100536.16
2022-12-18T18:34:30.870Z,100556.03
2022-12-18T18:37:02.243Z,100562.63
2022-12-18T18:39:30.398Z,100558.97
2022-12-18T18:41:57.971Z,100569.41
2022-12-18T18:44:26.480Z,100572.31
2022-12-18T18:46:56.627Z,100580.56
2022-12-18T18:49:27.703Z,100580.59
2022-12-18T18:51:57.778Z,100585.06
2022-12-18T18:54:27.542Z,100592.09
2022-12-18T18:57:29.953Z,100592.72
2022-12-18T18:59:46.593Z,100603.28
2022-12-18T19:02:15.633Z,100603.06
2022-12-18T19:04:46.062Z,100602.31
2022-12-18T19:07:19.756Z,100609.38
2022-12-18T19:10:02.090Z,100617.41
2022-12-18T19:12:50.633Z,100628.16
2022-12-18T19:15:18.249Z,100640.53
2022-12-18T19:17:47.110Z,100633.94
2022-12-18T19:20:15.797Z,100637.50
2022-12-18T19:22:43.311Z,100650.03
2022-12-18T19:25:16.458Z,100646.81
2022-12-18T19:27:44.192Z,100655.00
2022-12-18T19:30:12.270Z,100652.53
2022-12-18T19:32:39.915Z,100661.47
2022-12-18T19:35:07.669Z,100665.06
2022-12-18T19:37:35.575Z,100668.84
2022-12-18T19:40:07.948Z,100655.63
2022-12-18T19:42:40.708Z,100672.06
2022-12-18T19:45:08.483Z,100686.03
2022-12-18T19:47:36.103Z,100683.34
2022-12-18T19:50:04.017Z,100685.53
2022-12-18T19:52:31.713Z,100687.84
2022-12-18T19:54:59.222Z,100693.06
2022-12-18T19:57:26.839Z,100690.41
2022-12-18T19:59:54.369Z,100692.19
2022-12-18T20:02:22.114Z,100697.75
2022-12-18T20:04:50.263Z,100704.88
2022-12-18T20:07:17.980Z,100701.66
2022-12-18T20:09:45.797Z,100704.38
2022-12-18T20:12:14.493Z,100712.22
2022-12-18T20:14:42.083Z,100712.41
2022-12-18T20:17:09.694Z,100713.47
2022-12-18T20:19:37.153Z,100719.91
2022-12-18T20:22:12.575Z,100721.16
2022-12-18T20:24:42.450Z,100719.19
2022-12-18T20:27:15.225Z,100724.72
2022-12-18T20:29:44.831Z,100724.19
2022-12-18T20:32:12.313Z,100731.69
2022-12-18T20:34:39.875Z,100730.22
2022-12-18T20:37:08.305Z,100727.94
2022-12-18T20:39:37.678Z,100735.41
2022-12-18T20:42:05.867Z,100737.38
2022-12-18T20:44:40.997Z,100737.00
2022-12-18T20:47:09.003Z,100728.94
2022-12-18T20:49:36.556Z,100753.06
2022-12-18T20:52:07.929Z,100739.28
2022-12-18T20:54:35.433Z,100746.78
2022-12-18T20:57:02.959Z,100747.50
2022-12-18T20:59:30.781Z,100749.09
2022-12-18T21:01:58.464Z,100752.16
2022-12-18T21:04:26.308Z,100743.03
2022-12-18T21:06:59.175Z,100742.31
2022-12-18T21:09:37.812Z,100762.88
2022-12-18T21:12:33.428Z,100767.69
2022-12-18T21:15:10.367Z,100765.88
2022-12-18T21:17:44.388Z,100766.22
2022-12-18T21:20:18.581Z,100764.59
2022-12-18T21:22:49.323Z,100762.44
2022-12-18T21:25:17.145Z,100767.78
2022-12-18T21:27:44.624Z,100768.34
2022-12-18T21:30:13.229Z,100764.72
2022-12-18T21:32:41.237Z,100773.66
2022-12-18T21:35:09.278Z,100776.28
2022-12-18T21:37:36.986Z,100782.19
2022-12-18T21:40:05.152Z,100783.44
2022-12-18T21:42:51.545Z,100777.91
2022-12-18T21:45:19.122Z,100781.97
2022-12-18T21:47:46.641Z,100780.91
2022-12-18T21:50:14.352Z,100788.91
2022-12-18T21:52:42.017Z,100793.16
2022-12-18T21:55:10.233Z,100796.19
2022-12-18T21:57:39.444Z,100788.84
2022-12-18T22:00:18.718Z,100809.72
2022-12-18T22:02:49.607Z,100804.72
2022-12-18T22:05:36.382Z,100811.66
2022-12-18T22:08:04.119Z,100821.53
2022-12-18T22:10:32.115Z,100824.91
2022-12-18T22:12:59.591Z,100824.00
2022-12-18T22:15:27.283Z,100822.41
2022-12-18T22:17:59.722Z,100826.81
2022-12-18T22:20:29.998Z,100826.81
2022-12-18T22:22:58.655Z,100824.72
2022-12-18T22:25:27.130Z,100813.28
2022-12-18T22:28:13.278Z,100819.56
2022-12-18T22:30:40.919Z,100815.22
2022-12-18T22:33:08.530Z,100812.16
2022-12-18T22:35:38.413Z,100817.69
2022-12-18T22:38:09.508Z,100819.41
2022-12-18T22:40:37.095Z,100824.72
2022-12-18T22:43:04.602Z,100821.16
2022-12-18T22:45:32.143Z,100824.72
2022-12-18T22:48:01.685Z,100826.25
2022-12-18T22:50:29.334Z,100829.72
2022-12-18T22:52:56.867Z,100835.66
2022-12-18T22:55:24.311Z,100833.72
2022-12-18T22:57:54.591Z,100832.31
2022-12-18T23:00:24.560Z,100836.75
2022-12-18T23:02:59.947Z,100836.75
2022-12-18T23:05:31.847Z,100843.38
2022-12-18T23:07:59.686Z,100837.81
2022-12-18T23:10:28.598Z,100839.44
2022-12-18T23:12:56.072Z,100843.13
2022-12-18T23:15:28.281Z,100848.66
2022-12-18T23:17:57.854Z,100849.41
2022-12-18T23:20:29.249Z,100860.16
2022-12-18T23:22:56.803Z,100863.19
2022-12-18T23:25:24.421Z,100855.41
2022-12-18T23:27:52.022Z,100870.78
2022-12-18T23:30:19.573Z,100866.38
2022-12-18T23:32:47.213Z,100866.41
2022-12-18T23:35:15.820Z,100872.66
2022-12-18T23:38:00.655Z,100871.78
2022-12-18T23:40:29.965Z,100871.78
2022-12-18T23:42:59.394Z,100867.66
2022-12-18T23:45:26.891Z,100871.06
2022-12-18T23:47:54.394Z,100881.41
2022-12-18T23:50:28.941Z,100891.94
2022-12-18T23:53:04.710Z,100894.63
2022-12-18T23:55:34.044Z,100887.13
2022-12-18T23:58:01.488Z,100886.75
